Time;durP1;ratioP1;P1;durP2;ratioP2;P2;SDS_P1;SDS_P2;PMS_P1;PMS_P2;Temp;Humidity;BMP_temperature;BMP_pressure;BME280_temperature;BME280_humidity;BME280_pressure;Samples;Min_cycle;Max_cycle;Signal;HPM_P1;HPM_P2
2021/07/20 00:02:27;;;;;;;;;;;21.10;64.50;;;;;;5001725;28;19913;-71
2021/07/20 00:04:52;;;;;;;;;;;21.10;64.40;;;;;;4982766;28;22104;-72
2021/07/20 00:07:17;;;;;;;;;;;21.10;64.40;;;;;;4983445;28;19918;-71
2021/07/20 00:09:43;;;;;;;;;;;21.10;64.50;;;;;;4986310;28;19917;-71
2021/07/20 00:12:08;;;;;;;;;;;21.10;64.50;;;;;;5002391;28;19918;-71
2021/07/20 00:14:34;;;;;;;;;;;21.10;64.50;;;;;;4983559;28;19918;-71
2021/07/20 00:16:59;;;;;;;;;;;21.10;64.50;;;;;;4987833;28;19921;-71
2021/07/20 00:19:25;;;;;;;;;;;21.10;64.50;;;;;;4993004;28;19949;-71
2021/07/20 00:21:51;;;;;;;;;;;21.10;64.40;;;;;;5003456;28;19921;-71
2021/07/20 00:24:16;;;;;;;;;;;21.10;64.50;;;;;;4992779;28;19918;-71
2021/07/20 00:26:43;;;;;;;;;;;21.10;64.50;;;;;;4991033;28;20314;-71
2021/07/20 00:29:08;;;;;;;;;;;21.10;64.50;;;;;;5008887;28;19913;-70
2021/07/20 00:31:34;;;;;;;;;;;21.10;64.50;;;;;;4989462;28;19922;-71
2021/07/20 00:34:00;;;;;;;;;;;21.10;64.50;;;;;;5002197;28;19918;-71
2021/07/20 00:36:25;;;;;;;;;;;21.10;64.40;;;;;;4991828;28;19957;-70
2021/07/20 00:38:50;;;;;;;;;;;21.10;64.40;;;;;;4992210;28;19918;-71
2021/07/20 00:41:16;;;;;;;;;;;21.10;64.50;;;;;;5002572;28;20547;-71
2021/07/20 00:43:41;;;;;;;;;;;21.10;64.50;;;;;;4989516;28;19921;-71
2021/07/20 00:46:07;;;;;;;;;;;21.10;64.40;;;;;;5002519;28;19921;-71
2021/07/20 00:48:32;;;;;;;;;;;21.10;64.40;;;;;;4991533;28;20025;-71
2021/07/20 00:50:58;;;;;;;;;;;21.10;64.50;;;;;;4991629;28;19914;-70
2021/07/20 00:53:23;;;;;;;;;;;21.10;64.50;;;;;;4993815;28;19976;-71
2021/07/20 00:55:49;;;;;;;;;;;21.10;65.10;;;;;;5018890;28;19917;-71
2021/07/20 00:58:14;;;;;;;;;;;21.10;65.20;;;;;;5008767;28;19917;-71
2021/07/20 01:00:40;;;;;;;;;;;21.10;64.50;;;;;;5019526;28;19983;-71
2021/07/20 01:03:05;;;;;;;;;;;21.10;64.50;;;;;;4990769;28;19921;-71
2021/07/20 01:05:31;;;;;;;;;;;21.10;64.50;;;;;;5005777;28;20730;-71
2021/07/20 01:07:56;;;;;;;;;;;21.10;64.60;;;;;;4993369;28;20299;-71
2021/07/20 01:10:22;;;;;;;;;;;21.10;64.50;;;;;;5013281;28;19925;-71
2021/07/20 01:12:48;;;;;;;;;;;21.10;64.60;;;;;;5005337;28;19968;-71
2021/07/20 01:15:14;;;;;;;;;;;21.10;64.60;;;;;;4991049;28;19918;-71
2021/07/20 01:17:40;;;;;;;;;;;21.10;64.70;;;;;;4993918;28;20029;-71
2021/07/20 01:20:06;;;;;;;;;;;21.10;64.70;;;;;;4995815;28;19921;-71
2021/07/20 01:22:33;;;;;;;;;;;21.10;64.70;;;;;;5000665;28;20596;-71
2021/07/20 01:24:59;;;;;;;;;;;21.10;64.70;;;;;;4997092;28;19929;-71
2021/07/20 01:27:24;;;;;;;;;;;21.10;64.70;;;;;;4996645;28;20708;-72
2021/07/20 01:29:50;;;;;;;;;;;21.10;64.70;;;;;;4988348;28;19983;-72
2021/07/20 01:32:15;;;;;;;;;;;21.10;64.70;;;;;;5001538;28;20269;-71
2021/07/20 01:34:41;;;;;;;;;;;21.10;64.60;;;;;;4992682;28;19917;-71
2021/07/20 01:37:06;;;;;;;;;;;21.10;64.70;;;;;;5000287;28;20008;-68
2021/07/20 01:39:32;;;;;;;;;;;21.10;64.70;;;;;;4995730;28;19928;-71
2021/07/20 01:41:57;;;;;;;;;;;21.10;64.60;;;;;;5009504;28;19976;-71
2021/07/20 01:44:23;;;;;;;;;;;21.10;64.70;;;;;;4985450;28;19917;-70
2021/07/20 01:46:48;;;;;;;;;;;21.10;64.70;;;;;;5016191;28;19984;-71
2021/07/20 01:49:14;;;;;;;;;;;21.10;64.60;;;;;;5011036;28;19948;-70
2021/07/20 01:51:39;;;;;;;;;;;21.10;64.60;;;;;;5003251;28;19918;-70
2021/07/20 01:54:05;;;;;;;;;;;21.10;64.60;;;;;;5000559;28;19918;-70
2021/07/20 01:56:30;;;;;;;;;;;21.10;64.60;;;;;;5000516;28;19913;-70
2021/07/20 01:58:56;;;;;;;;;;;21.10;64.50;;;;;;4999084;28;20266;-71
2021/07/20 02:01:23;;;;;;;;;;;21.10;64.60;;;;;;4989227;28;19917;-72
2021/07/20 02:09:19;;;;;;;;;;;21.10;64.70;;;;;;4989515;28;19944;-68
2021/07/20 02:11:44;;;;;;;;;;;21.10;64.70;;;;;;5016890;28;19913;-70
2021/07/20 02:14:11;;;;;;;;;;;21.10;64.60;;;;;;5011389;28;19913;-70
2021/07/20 02:16:47;;;;;;;;;;;21.10;64.60;;;;;;5013135;28;19917;-69
2021/07/20 02:19:14;;;;;;;;;;;21.10;64.60;;;;;;4988601;28;19929;-70
2021/07/20 02:21:47;;;;;;;;;;;21.10;65.30;;;;;;5010548;28;20603;-71
2021/07/20 02:24:14;;;;;;;;;;;21.10;64.70;;;;;;5003501;28;19921;-70
2021/07/20 02:26:39;;;;;;;;;;;21.10;64.70;;;;;;5016926;28;19914;-70
2021/07/20 02:29:05;;;;;;;;;;;21.10;64.70;;;;;;5014908;28;19936;-71
2021/07/20 02:31:30;;;;;;;;;;;21.10;64.70;;;;;;5016965;28;19914;-71
2021/07/20 02:33:56;;;;;;;;;;;21.10;64.60;;;;;;5021948;28;19920;-71
2021/07/20 02:36:21;;;;;;;;;;;21.10;64.60;;;;;;5033039;28;19912;-71
2021/07/20 02:38:47;;;;;;;;;;;21.10;64.60;;;;;;5027408;28;19921;-70
2021/07/20 02:41:12;;;;;;;;;;;21.10;64.60;;;;;;5023516;28;19921;-70
2021/07/20 02:43:38;;;;;;;;;;;21.10;64.60;;;;;;5023975;28;20047;-71
2021/07/20 02:46:08;;;;;;;;;;;21.10;64.60;;;;;;5021445;28;20457;-70
2021/07/20 02:48:42;;;;;;;;;;;21.10;64.60;;;;;;5032545;28;20333;-71
2021/07/20 02:51:10;;;;;;;;;;;21.10;64.60;;;;;;5025200;28;19940;-71
2021/07/20 02:53:39;;;;;;;;;;;21.10;64.70;;;;;;5038744;28;19982;-71
2021/07/20 02:56:05;;;;;;;;;;;21.10;64.60;;;;;;5030353;28;19913;-71
2021/07/20 02:58:31;;;;;;;;;;;21.10;64.50;;;;;;5041645;28;19920;-71
2021/07/20 03:00:56;;;;;;;;;;;21.10;64.50;;;;;;5031124;28;19917;-71
2021/07/20 03:03:22;;;;;;;;;;;21.00;64.40;;;;;;5028313;28;19925;-71
2021/07/20 03:05:47;;;;;;;;;;;21.00;64.50;;;;;;5029273;28;19917;-71
2021/07/20 03:08:13;;;;;;;;;;;21.00;64.50;;;;;;5037299;28;19959;-71
2021/07/20 03:10:38;;;;;;;;;;;21.10;64.50;;;;;;5032867;28;20001;-71
2021/07/20 03:13:05;;;;;;;;;;;21.00;64.50;;;;;;5016130;28;19913;-72
2021/07/20 03:15:31;;;;;;;;;;;21.00;64.50;;;;;;5039096;28;19939;-71
2021/07/20 03:17:57;;;;;;;;;;;21.10;64.60;;;;;;5032961;28;20406;-71
2021/07/20 03:20:22;;;;;;;;;;;21.00;64.60;;;;;;5028274;28;20476;-71
2021/07/20 03:22:48;;;;;;;;;;;21.00;64.50;;;;;;5033795;28;19917;-71
2021/07/20 03:25:13;;;;;;;;;;;21.10;64.50;;;;;;5026153;28;20303;-71
2021/07/20 03:27:39;;;;;;;;;;;21.00;64.50;;;;;;5040625;28;19970;-71
2021/07/20 03:30:05;;;;;;;;;;;21.00;64.50;;;;;;5027384;28;20009;-71
2021/07/20 03:32:31;;;;;;;;;;;21.00;64.50;;;;;;5040556;28;20004;-71
2021/07/20 03:34:56;;;;;;;;;;;21.00;64.50;;;;;;5045138;22;19933;-73
2021/07/20 03:37:22;;;;;;;;;;;21.00;64.60;;;;;;5053666;22;20648;-57
2021/07/20 03:39:47;;;;;;;;;;;21.00;64.50;;;;;;5045943;28;19912;-58
2021/07/20 03:42:13;;;;;;;;;;;21.00;64.50;;;;;;5047084;28;19921;-58
2021/07/20 03:44:38;;;;;;;;;;;21.00;64.50;;;;;;5013349;28;19917;-60
2021/07/20 03:47:04;;;;;;;;;;;21.00;64.60;;;;;;5040838;28;19928;-58
2021/07/20 03:49:29;;;;;;;;;;;21.00;64.60;;;;;;5040699;28;20361;-58
2021/07/20 03:52:01;;;;;;;;;;;21.00;64.60;;;;;;5033188;28;19963;-57
2021/07/20 03:54:26;;;;;;;;;;;21.00;64.60;;;;;;5044356;28;19920;-57
2021/07/20 03:56:52;;;;;;;;;;;21.00;64.60;;;;;;5054074;28;19970;-59
2021/07/20 03:59:18;;;;;;;;;;;21.00;64.70;;;;;;5032471;28;19917;-58
2021/07/20 04:01:45;;;;;;;;;;;21.00;64.60;;;;;;5033007;28;19944;-58
2021/07/20 04:04:11;;;;;;;;;;;20.90;64.60;;;;;;5035059;28;19952;-58
2021/07/20 04:06:36;;;;;;;;;;;21.00;64.70;;;;;;5031336;28;19948;-59
2021/07/20 04:09:02;;;;;;;;;;;21.00;64.60;;;;;;5034532;28;19916;-58
2021/07/20 04:11:27;;;;;;;;;;;21.00;64.60;;;;;;5037699;28;19918;-57
2021/07/20 04:13:53;;;;;;;;;;;21.00;64.60;;;;;;5054562;28;19930;-59
2021/07/20 04:16:18;;;;;;;;;;;21.00;64.70;;;;;;5054728;28;20650;-57
2021/07/20 04:18:43;;;;;;;;;;;21.00;64.70;;;;;;5045491;28;19917;-57
2021/07/20 04:21:09;;;;;;;;;;;21.00;65.30;;;;;;5037307;28;20011;-59
2021/07/20 04:23:35;;;;;;;;;;;21.00;64.70;;;;;;5053609;28;19939;-61
2021/07/20 04:26:00;;;;;;;;;;;21.00;64.70;;;;;;5037053;28;19913;-58
2021/07/20 04:28:26;;;;;;;;;;;21.00;64.80;;;;;;5034328;28;19917;-57
2021/07/20 04:30:51;;;;;;;;;;;20.90;64.90;;;;;;5047615;28;20707;-58
2021/07/20 04:33:24;;;;;;;;;;;21.00;65.00;;;;;;5037022;28;19924;-58
2021/07/20 04:35:50;;;;;;;;;;;21.00;65.10;;;;;;5053611;28;21026;-58
2021/07/20 04:38:15;;;;;;;;;;;21.00;65.20;;;;;;5050473;28;19928;-58
2021/07/20 04:40:41;;;;;;;;;;;20.90;65.10;;;;;;5052578;28;20613;-59
2021/07/20 04:43:06;;;;;;;;;;;20.90;65.20;;;;;;5032536;28;19913;-56
2021/07/20 04:45:32;;;;;;;;;;;20.90;65.20;;;;;;5041002;28;19940;-59
2021/07/20 04:47:57;;;;;;;;;;;20.90;65.40;;;;;;5040756;28;19986;-60
2021/07/20 04:50:23;;;;;;;;;;;20.90;65.40;;;;;;5034449;28;19921;-59
2021/07/20 04:52:48;;;;;;;;;;;20.90;65.50;;;;;;5026600;28;19910;-54
2021/07/20 04:55:14;;;;;;;;;;;20.90;65.60;;;;;;5011881;28;20593;-59
2021/07/20 04:57:39;;;;;;;;;;;20.90;65.40;;;;;;4996268;28;19914;-58
2021/07/20 05:00:08;;;;;;;;;;;20.90;65.00;;;;;;4992850;28;19913;-59
2021/07/20 05:02:36;;;;;;;;;;;20.90;64.70;;;;;;4996125;28;20297;-58
2021/07/20 05:05:02;;;;;;;;;;;20.90;64.80;;;;;;5008395;28;20032;-57
2021/07/20 05:07:27;;;;;;;;;;;20.90;65.00;;;;;;4999307;28;20799;-58
2021/07/20 05:09:53;;;;;;;;;;;20.90;64.70;;;;;;5005169;28;20441;-59
2021/07/20 05:12:18;;;;;;;;;;;20.90;65.10;;;;;;5006106;28;19947;-57
2021/07/20 05:14:44;;;;;;;;;;;20.90;65.30;;;;;;5013206;28;20103;-57
2021/07/20 05:17:10;;;;;;;;;;;20.90;65.40;;;;;;4992795;28;19918;-57
2021/07/20 05:19:35;;;;;;;;;;;20.90;65.40;;;;;;5004263;28;19917;-59
2021/07/20 05:22:01;;;;;;;;;;;20.90;65.20;;;;;;5006671;28;19925;-59
2021/07/20 05:24:27;;;;;;;;;;;20.90;65.20;;;;;;5005301;28;20516;-57
2021/07/20 05:26:52;;;;;;;;;;;20.90;65.00;;;;;;5001497;28;19924;-58
2021/07/20 05:29:20;;;;;;;;;;;20.90;64.90;;;;;;5010654;28;22330;-58
2021/07/20 05:31:45;;;;;;;;;;;20.90;64.30;;;;;;4987992;28;19920;-59
2021/07/20 05:34:12;;;;;;;;;;;20.90;64.60;;;;;;5012061;28;19928;-60
2021/07/20 05:36:38;;;;;;;;;;;20.90;64.80;;;;;;4997059;28;20563;-59
2021/07/20 05:39:03;;;;;;;;;;;20.90;65.00;;;;;;5002778;28;19925;-58
2021/07/20 05:41:29;;;;;;;;;;;20.90;65.00;;;;;;5012737;28;19987;-56
2021/07/20 05:43:55;;;;;;;;;;;20.90;65.40;;;;;;5016009;28;19920;-57
2021/07/20 05:46:20;;;;;;;;;;;20.90;65.50;;;;;;5000028;28;20335;-58
2021/07/20 05:48:45;;;;;;;;;;;20.90;65.30;;;;;;5001571;28;19925;-58
2021/07/20 05:51:11;;;;;;;;;;;20.90;65.20;;;;;;5014770;28;19913;-61
2021/07/20 05:53:36;;;;;;;;;;;20.90;65.00;;;;;;5014524;28;20360;-60
2021/07/20 05:56:02;;;;;;;;;;;20.90;65.00;;;;;;5004202;28;19921;-60
2021/07/20 05:58:28;;;;;;;;;;;20.90;65.10;;;;;;4996879;28;20471;-60
2021/07/20 06:00:53;;;;;;;;;;;20.80;65.10;;;;;;5013331;28;19924;-58
2021/07/20 06:03:19;;;;;;;;;;;20.90;65.20;;;;;;5006989;28;20287;-56
2021/07/20 06:05:48;;;;;;;;;;;20.90;65.10;;;;;;5003040;28;19924;-57
2021/07/20 06:08:15;;;;;;;;;;;20.90;65.20;;;;;;5008276;28;19928;-59
2021/07/20 06:10:40;;;;;;;;;;;20.90;65.40;;;;;;5011673;28;19917;-60
2021/07/20 06:13:06;;;;;;;;;;;20.80;65.40;;;;;;5015407;28;19917;-58
2021/07/20 06:15:31;;;;;;;;;;;20.90;65.50;;;;;;5015402;28;20679;-57
2021/07/20 06:17:59;;;;;;;;;;;20.80;65.30;;;;;;5001630;28;19926;-57
2021/07/20 06:20:25;;;;;;;;;;;20.90;65.40;;;;;;4995640;28;19913;-56
2021/07/20 06:22:51;;;;;;;;;;;20.90;65.40;;;;;;4997415;28;19913;-58
2021/07/20 06:25:17;;;;;;;;;;;20.90;65.40;;;;;;4995688;28;20014;-62
2021/07/20 06:27:43;;;;;;;;;;;20.80;66.00;;;;;;4996952;28;19997;-61
2021/07/20 06:30:08;;;;;;;;;;;20.90;65.40;;;;;;4995748;28;19928;-61
2021/07/20 06:32:35;;;;;;;;;;;20.80;65.30;;;;;;4999651;28;19913;-60
2021/07/20 06:35:00;;;;;;;;;;;20.90;65.30;;;;;;5015485;28;20620;-61
2021/07/20 06:37:26;;;;;;;;;;;20.90;65.40;;;;;;5017082;28;19925;-61
2021/07/20 06:39:51;;;;;;;;;;;20.90;65.50;;;;;;5001630;28;20530;-58
2021/07/20 06:42:17;;;;;;;;;;;20.90;65.30;;;;;;4996098;28;20007;-57
2021/07/20 06:44:43;;;;;;;;;;;20.90;65.30;;;;;;4997687;28;19921;-58
2021/07/20 06:47:12;;;;;;;;;;;20.90;65.30;;;;;;4996146;28;19984;-59
2021/07/20 06:49:37;;;;;;;;;;;20.80;65.30;;;;;;4997192;28;19925;-58
2021/07/20 06:52:05;;;;;;;;;;;20.80;65.30;;;;;;4995489;28;19918;-57
2021/07/20 06:54:31;;;;;;;;;;;20.80;63.60;;;;;;4997572;28;19913;-60
2021/07/20 06:56:57;;;;;;;;;;;20.70;64.90;;;;;;4996071;28;19920;-60
2021/07/20 06:59:24;;;;;;;;;;;20.80;65.00;;;;;;4994948;28;19917;-61
2021/07/20 07:01:49;;;;;;;;;;;20.80;65.10;;;;;;4995132;28;20354;-59
2021/07/20 07:04:25;;;;;;;;;;;20.80;65.20;;;;;;4997946;28;19948;-62
2021/07/20 07:06:52;;;;;;;;;;;20.80;64.20;;;;;;4994733;28;20574;-60
2021/07/20 07:09:17;;;;;;;;;;;20.80;65.00;;;;;;4995116;28;19917;-59
2021/07/20 07:11:43;;;;;;;;;;;20.80;65.10;;;;;;4994654;28;19941;-60
2021/07/20 07:14:11;;;;;;;;;;;20.80;65.10;;;;;;4994434;28;20024;-59
2021/07/20 07:16:37;;;;;;;;;;;20.80;65.10;;;;;;5008855;28;19979;-57
2021/07/20 07:19:02;;;;;;;;;;;20.80;65.10;;;;;;5015105;28;19958;-60
2021/07/20 07:21:28;;;;;;;;;;;20.80;65.10;;;;;;5016471;28;20201;-59
2021/07/20 07:23:53;;;;;;;;;;;20.80;65.10;;;;;;5016297;28;19951;-60
2021/07/20 07:26:19;;;;;;;;;;;20.80;64.90;;;;;;5015014;28;19924;-60
2021/07/20 07:28:45;;;;;;;;;;;20.80;64.90;;;;;;5013649;28;19917;-61
2021/07/20 07:31:11;;;;;;;;;;;20.80;64.80;;;;;;5015509;28;19925;-60
2021/07/20 07:33:36;;;;;;;;;;;20.80;64.80;;;;;;5014685;28;19951;-60
2021/07/20 07:36:02;;;;;;;;;;;20.80;64.90;;;;;;5015887;28;19970;-61
2021/07/20 07:38:27;;;;;;;;;;;20.80;64.90;;;;;;5003291;28;19921;-61
2021/07/20 07:40:53;;;;;;;;;;;20.80;64.40;;;;;;4993766;28;19917;-60
2021/07/20 07:43:19;;;;;;;;;;;20.60;63.80;;;;;;4993486;28;20535;-59
2021/07/20 07:45:45;;;;;;;;;;;20.70;64.70;;;;;;4993635;28;20410;-60
2021/07/20 07:48:12;;;;;;;;;;;20.70;64.10;;;;;;5005630;28;19921;-61
2021/07/20 07:50:37;;;;;;;;;;;20.70;64.50;;;;;;5013544;28;19924;-60
2021/07/20 07:53:02;;;;;;;;;;;20.70;63.50;;;;;;5016827;28;20597;-59
2021/07/20 07:55:28;;;;;;;;;;;20.70;64.30;;;;;;5000542;28;20012;-61
2021/07/20 07:57:53;;;;;;;;;;;20.70;64.40;;;;;;4993925;28;19921;-60
2021/07/20 08:00:19;;;;;;;;;;;20.70;63.80;;;;;;4995493;28;19971;-60
2021/07/20 08:02:46;;;;;;;;;;;20.70;64.30;;;;;;4996664;28;19973;-60
2021/07/20 08:05:12;;;;;;;;;;;20.70;63.80;;;;;;4996570;28;20294;-59
2021/07/20 08:07:37;;;;;;;;;;;20.70;63.80;;;;;;4996992;28;19928;-60
2021/07/20 08:10:03;;;;;;;;;;;20.70;62.80;;;;;;4995770;28;19914;-60
2021/07/20 08:12:28;;;;;;;;;;;20.70;64.00;;;;;;4994334;28;20353;-59
2021/07/20 08:14:54;;;;;;;;;;;20.70;64.20;;;;;;4998796;28;20358;-61
2021/07/20 08:17:19;;;;;;;;;;;20.70;64.10;;;;;;5014698;28;19940;-60
2021/07/20 08:19:45;;;;;;;;;;;20.70;64.10;;;;;;5013129;28;21867;-61
2021/07/20 08:22:14;;;;;;;;;;;20.70;64.00;;;;;;5016015;28;19960;-63
2021/07/20 08:24:42;;;;;;;;;;;20.70;63.20;;;;;;5015706;28;20070;-63
2021/07/20 08:27:12;;;;;;;;;;;20.70;63.50;;;;;;5015763;28;20467;-63
2021/07/20 08:29:37;;;;;;;;;;;20.70;63.50;;;;;;5013544;28;20447;-62
2021/07/20 08:32:04;;;;;;;;;;;20.70;63.50;;;;;;5014831;28;19921;-60
2021/07/20 08:34:32;;;;;;;;;;;20.70;63.70;;;;;;5014262;28;19927;-59
2021/07/20 08:36:57;;;;;;;;;;;20.70;63.80;;;;;;5016027;28;19921;-59
2021/07/20 08:39:23;;;;;;;;;;;20.70;63.80;;;;;;5013293;28;19925;-59
2021/07/20 08:41:57;;;;;;;;;;;20.70;63.90;;;;;;5014406;28;19925;-60
2021/07/20 08:44:23;;;;;;;;;;;20.70;62.20;;;;;;5015445;28;19917;-59
2021/07/20 08:47:00;;;;;;;;;;;20.60;62.70;;;;;;5016406;28;20456;-61
2021/07/20 08:49:36;;;;;;;;;;;20.60;63.10;;;;;;5014203;28;20004;-59
2021/07/20 08:52:03;;;;;;;;;;;20.70;63.30;;;;;;5014807;28;19921;-60
2021/07/20 08:54:31;;;;;;;;;;;20.70;63.20;;;;;;5017713;28;19921;-58
2021/07/20 08:56:59;;;;;;;;;;;20.70;63.40;;;;;;5018823;28;19923;-60
2021/07/20 08:59:27;;;;;;;;;;;20.70;64.10;;;;;;5019460;28;19975;-61
2021/07/20 09:01:56;;;;;;;;;;;20.70;62.60;;;;;;5017572;28;19925;-63
2021/07/20 09:04:22;;;;;;;;;;;20.70;63.20;;;;;;5017429;28;19947;-60
2021/07/20 09:06:48;;;;;;;;;;;20.70;62.80;;;;;;5019900;28;19914;-60
2021/07/20 09:09:24;;;;;;;;;;;20.70;63.10;;;;;;5000735;28;19967;-60
2021/07/20 09:11:55;;;;;;;;;;;20.70;63.20;;;;;;5032445;28;20605;-60
2021/07/20 09:14:40;;;;;;;;;;;20.60;62.20;;;;;;5038640;28;19913;-60
2021/07/20 09:17:18;;;;;;;;;;;20.60;63.10;;;;;;5056976;28;20292;-59
2021/07/20 09:19:50;;;;;;;;;;;20.70;63.30;;;;;;5039847;28;20587;-59
2021/07/20 09:22:17;;;;;;;;;;;20.60;63.60;;;;;;5058909;28;20270;-60
2021/07/20 09:24:42;;;;;;;;;;;20.60;63.60;;;;;;5049175;28;19921;-59
2021/07/20 09:27:09;;;;;;;;;;;20.60;62.60;;;;;;5038492;28;20086;-60
2021/07/20 09:29:36;;;;;;;;;;;20.60;63.00;;;;;;5038308;28;19913;-63
2021/07/20 09:32:04;;;;;;;;;;;20.60;63.20;;;;;;5037428;28;19927;-63
2021/07/20 09:34:31;;;;;;;;;;;20.60;63.30;;;;;;5038125;28;19959;-63
2021/07/20 09:37:03;;;;;;;;;;;20.60;63.40;;;;;;5036728;22;19929;-60
2021/07/20 09:39:49;;;;;;;;;;;20.60;63.10;;;;;;4993922;28;19918;-61
2021/07/20 09:42:27;;;;;;;;;;;20.60;63.00;;;;;;5003081;28;20011;-58
2021/07/20 09:45:04;;;;;;;;;;;20.60;62.40;;;;;;4994234;28;20526;-61
2021/07/20 09:47:39;;;;;;;;;;;20.60;63.10;;;;;;5002903;28;20390;-60
2021/07/20 09:50:05;;;;;;;;;;;20.60;62.70;;;;;;4961918;28;19926;-60
2021/07/20 09:52:42;;;;;;;;;;;20.60;63.20;;;;;;4954975;28;20639;-60
2021/07/20 09:55:12;;;;;;;;;;;20.60;63.20;;;;;;4948679;28;19918;-61
2021/07/20 09:57:54;;;;;;;;;;;20.60;61.20;;;;;;4944503;28;19923;-60
2021/07/20 10:00:21;;;;;;;;;;;20.60;62.30;;;;;;4959454;28;19918;-60
2021/07/20 10:02:46;;;;;;;;;;;20.60;62.70;;;;;;4947873;28;19922;-60
2021/07/20 10:05:15;;;;;;;;;;;20.60;62.20;;;;;;4951710;28;19918;-60
2021/07/20 10:07:41;;;;;;;;;;;20.60;62.60;;;;;;4954232;28;19929;-59
2021/07/20 10:10:11;;;;;;;;;;;20.60;62.80;;;;;;4958869;28;19918;-60
2021/07/20 10:12:42;;;;;;;;;;;20.60;62.80;;;;;;4946459;28;19914;-60
2021/07/20 10:15:08;;;;;;;;;;;20.60;62.20;;;;;;4950743;28;19980;-61
2021/07/20 10:17:43;;;;;;;;;;;20.60;62.80;;;;;;4952074;28;19965;-61
2021/07/20 10:20:20;;;;;;;;;;;20.60;62.90;;;;;;4954402;28;19918;-60
2021/07/20 10:22:51;;;;;;;;;;;20.60;63.00;;;;;;4948401;28;19919;-60
2021/07/20 10:25:19;;;;;;;;;;;20.60;63.00;;;;;;4954393;28;20549;-60
2021/07/20 10:27:45;;;;;;;;;;;20.60;63.10;;;;;;4955783;28;19915;-61
2021/07/20 10:30:12;;;;;;;;;;;20.60;63.20;;;;;;4957651;28;19922;-61
2021/07/20 10:32:37;;;;;;;;;;;20.60;63.20;;;;;;4948061;28;20017;-61
2021/07/20 10:35:03;;;;;;;;;;;20.60;63.10;;;;;;4948110;28;20025;-62
2021/07/20 10:37:29;;;;;;;;;;;20.60;63.10;;;;;;4954016;28;19926;-61
2021/07/20 10:40:06;;;;;;;;;;;20.60;63.10;;;;;;4945255;28;20273;-60
2021/07/20 10:42:36;;;;;;;;;;;20.60;61.40;;;;;;4957547;28;19922;-61
2021/07/20 10:45:02;;;;;;;;;;;20.50;62.70;;;;;;4954741;28;19914;-60
2021/07/20 10:47:33;;;;;;;;;;;20.60;62.70;;;;;;4916236;28;19958;-61
2021/07/20 10:50:10;;;;;;;;;;;20.50;59.90;;;;;;4952408;28;20152;-60
2021/07/20 10:52:47;;;;;;;;;;;20.50;62.60;;;;;;4929047;28;20064;-61
2021/07/20 10:55:22;;;;;;;;;;;20.50;62.70;;;;;;4951009;28;20552;-59
2021/07/20 10:57:56;;;;;;;;;;;20.50;62.70;;;;;;4950886;28;19913;-59
2021/07/20 11:00:21;;;;;;;;;;;20.50;62.70;;;;;;4961200;28;19930;-59
2021/07/20 11:02:49;;;;;;;;;;;20.50;63.00;;;;;;4951531;28;20611;-60
2021/07/20 11:05:14;;;;;;;;;;;20.50;62.00;;;;;;4950383;28;19958;-61
2021/07/20 11:07:47;;;;;;;;;;;20.50;63.00;;;;;;4958316;28;19961;-60
2021/07/20 11:10:14;;;;;;;;;;;20.50;62.90;;;;;;4950345;28;19942;-61
2021/07/20 11:12:39;;;;;;;;;;;20.50;63.30;;;;;;4954869;28;19918;-61
2021/07/20 11:15:05;;;;;;;;;;;20.50;62.30;;;;;;4959059;28;19925;-60
2021/07/20 11:17:30;;;;;;;;;;;20.50;62.90;;;;;;4945047;28;19915;-58
2021/07/20 11:19:58;;;;;;;;;;;20.50;62.90;;;;;;4950103;28;20368;-61
2021/07/20 11:22:24;;;;;;;;;;;20.50;63.20;;;;;;4954915;28;19923;-61
2021/07/20 11:24:50;;;;;;;;;;;20.50;62.80;;;;;;4949277;28;20003;-60
2021/07/20 11:27:19;;;;;;;;;;;20.40;62.60;;;;;;4950179;28;20620;-58
2021/07/20 11:29:45;;;;;;;;;;;20.40;63.00;;;;;;4951565;28;20006;-61
2021/07/20 11:32:13;;;;;;;;;;;20.50;63.40;;;;;;4949093;28;19918;-61
2021/07/20 11:34:42;;;;;;;;;;;20.50;63.50;;;;;;4951181;28;19915;-62
2021/07/20 11:37:11;;;;;;;;;;;20.50;63.00;;;;;;4954432;28;19926;-60
2021/07/20 11:39:40;;;;;;;;;;;20.50;62.20;;;;;;4951828;28;19914;-61
2021/07/20 11:42:17;;;;;;;;;;;20.50;63.40;;;;;;4941446;28;19926;-61
2021/07/20 11:45:02;;;;;;;;;;;20.50;63.40;;;;;;4958854;28;19922;-60
2021/07/20 11:47:27;;;;;;;;;;;20.50;63.10;;;;;;4939334;28;20592;-60
2021/07/20 11:49:59;;;;;;;;;;;20.50;62.60;;;;;;4945361;28;19918;-61
2021/07/20 11:52:25;;;;;;;;;;;20.50;62.90;;;;;;4947596;28;19945;-61
2021/07/20 11:55:06;;;;;;;;;;;20.50;62.60;;;;;;4952511;28;19957;-60
2021/07/20 11:57:40;;;;;;;;;;;20.50;63.00;;;;;;4952749;28;19922;-60
2021/07/20 12:00:15;;;;;;;;;;;20.50;63.20;;;;;;4947307;28;19925;-60
2021/07/20 12:02:59;;;;;;;;;;;20.50;63.10;;;;;;4953360;28;20073;-60
2021/07/20 12:05:36;;;;;;;;;;;20.50;62.80;;;;;;4949774;28;19918;-61
2021/07/20 12:08:20;;;;;;;;;;;20.50;62.70;;;;;;4950915;28;19926;-61
2021/07/20 12:10:50;;;;;;;;;;;20.50;62.80;;;;;;4948397;28;20343;-60
2021/07/20 12:13:16;;;;;;;;;;;20.50;62.60;;;;;;4944551;28;19925;-60
2021/07/20 12:15:42;;;;;;;;;;;20.50;62.60;;;;;;4952958;28;19914;-60
2021/07/20 12:18:07;;;;;;;;;;;20.50;62.80;;;;;;4942622;28;19973;-61
2021/07/20 12:20:33;;;;;;;;;;;20.50;63.00;;;;;;4949690;28;19919;-61
2021/07/20 12:22:58;;;;;;;;;;;20.50;63.20;;;;;;4951358;28;19922;-59
2021/07/20 12:25:24;;;;;;;;;;;20.50;61.50;;;;;;4961319;28;20211;-59
2021/07/20 12:27:51;;;;;;;;;;;20.50;61.70;;;;;;4946959;28;20435;-61
2021/07/20 12:30:17;;;;;;;;;;;20.50;61.60;;;;;;4964375;28;20392;-59
2021/07/20 12:32:43;;;;;;;;;;;20.50;62.10;;;;;;4947612;28;20016;-61
2021/07/20 12:35:13;;;;;;;;;;;20.50;62.50;;;;;;4948799;28;20384;-59
2021/07/20 12:37:39;;;;;;;;;;;20.50;62.30;;;;;;4949744;28;19961;-61
2021/07/20 12:40:14;;;;;;;;;;;20.50;62.30;;;;;;4952688;28;19918;-60
2021/07/20 12:42:41;;;;;;;;;;;20.50;62.70;;;;;;4957072;28;19957;-60
2021/07/20 12:45:07;;;;;;;;;;;20.50;61.90;;;;;;4959384;28;20405;-61
2021/07/20 12:47:43;;;;;;;;;;;20.50;62.40;;;;;;4951952;28;19941;-60
2021/07/20 12:50:09;;;;;;;;;;;20.60;61.50;;;;;;4957512;28;19918;-61
2021/07/20 12:52:36;;;;;;;;;;;20.50;62.40;;;;;;4966150;28;19972;-60
2021/07/20 12:55:05;;;;;;;;;;;20.50;62.40;;;;;;4952120;28;20591;-60
2021/07/20 12:57:30;;;;;;;;;;;20.50;60.70;;;;;;4950625;28;19919;-60
2021/07/20 12:59:56;;;;;;;;;;;20.60;61.70;;;;;;4966084;28;19964;-61
2021/07/20 13:02:21;;;;;;;;;;;20.60;61.40;;;;;;4960071;28;19918;-62
2021/07/20 13:04:48;;;;;;;;;;;20.60;60.70;;;;;;4948048;28;19915;-59
2021/07/20 13:07:15;;;;;;;;;;;20.60;62.00;;;;;;4958285;28;19921;-65
2021/07/20 13:09:40;;;;;;;;;;;20.60;61.90;;;;;;4958847;28;20336;-60
2021/07/20 13:12:06;;;;;;;;;;;20.60;59.40;;;;;;4952894;28;19977;-60
2021/07/20 13:14:32;;;;;;;;;;;20.60;61.10;;;;;;4959746;28;20328;-60
2021/07/20 13:16:58;;;;;;;;;;;20.50;60.70;;;;;;4955011;28;19949;-61
2021/07/20 13:19:23;;;;;;;;;;;20.50;61.80;;;;;;4963512;28;19918;-60
2021/07/20 13:21:49;;;;;;;;;;;20.50;61.80;;;;;;4951511;28;19922;-60
2021/07/20 13:24:14;;;;;;;;;;;20.50;59.70;;;;;;4948527;28;19958;-59
2021/07/20 13:26:40;;;;;;;;;;;20.50;58.80;;;;;;4950809;28;19918;-60
2021/07/20 13:29:08;;;;;;;;;;;20.50;60.60;;;;;;4965847;28;20025;-61
2021/07/20 13:31:34;;;;;;;;;;;20.60;61.00;;;;;;4962634;28;19914;-60
2021/07/20 13:34:00;;;;;;;;;;;20.60;59.50;;;;;;4951200;28;19914;-61
2021/07/20 13:36:25;;;;;;;;;;;20.50;61.00;;;;;;4951347;28;19914;-60
2021/07/20 13:38:51;;;;;;;;;;;20.50;60.90;;;;;;4958599;28;19922;-60
2021/07/20 13:41:16;;;;;;;;;;;20.50;61.80;;;;;;4955060;28;19926;-60
2021/07/20 13:43:42;;;;;;;;;;;20.50;61.50;;;;;;4953553;28;19949;-62
2021/07/20 13:46:07;;;;;;;;;;;20.60;60.10;;;;;;4961317;28;20323;-61
2021/07/20 13:48:34;;;;;;;;;;;20.50;61.30;;;;;;4955148;28;19915;-60
2021/07/20 13:51:01;;;;;;;;;;;20.60;61.40;;;;;;4951566;28;20454;-60
2021/07/20 13:53:29;;;;;;;;;;;20.60;60.20;;;;;;4955814;28;19918;-61
2021/07/20 13:56:15;;;;;;;;;;;20.60;61.00;;;;;;4955100;28;20009;-59
2021/07/20 13:58:41;;;;;;;;;;;20.60;61.70;;;;;;4948876;28;19941;-60
2021/07/20 14:01:06;;;;;;;;;;;20.60;61.90;;;;;;4945730;28;19919;-60
2021/07/20 14:03:32;;;;;;;;;;;20.50;61.80;;;;;;4949908;28;19922;-58
2021/07/20 14:05:58;;;;;;;;;;;20.60;61.60;;;;;;4950361;28;20013;-60
2021/07/20 14:08:23;;;;;;;;;;;20.60;61.40;;;;;;4949308;28;19925;-61
2021/07/20 14:10:49;;;;;;;;;;;20.60;61.20;;;;;;4949035;28;19921;-61
2021/07/20 14:13:14;;;;;;;;;;;20.50;61.30;;;;;;4941682;28;19919;-60
2021/07/20 14:15:40;;;;;;;;;;;20.50;61.00;;;;;;4946155;28;19918;-60
2021/07/20 14:18:05;;;;;;;;;;;20.60;61.40;;;;;;4954467;28;20602;-60
2021/07/20 14:20:32;;;;;;;;;;;20.60;61.40;;;;;;4956800;28;20026;-59
2021/07/20 14:22:58;;;;;;;;;;;20.60;60.40;;;;;;4945551;28;20472;-59